createdAt,value
2022-11-29T00:01:37.088Z,100786.06
2022-11-29T00:06:32.858Z,100773.91
2022-11-29T00:11:46.985Z,100794.41
2022-11-29T00:16:43.404Z,100798.94
2022-11-29T00:21:37.241Z,100766.34
2022-11-29T00:26:29.910Z,100789.44
2022-11-29T00:31:33.811Z,100788.59
2022-11-29T00:36:27.785Z,100761.88
2022-11-29T00:41:20.979Z,100753.28
2022-11-29T00:46:14.315Z,100772.31
2022-11-29T00:51:08.522Z,100765.38
2022-11-29T00:56:01.338Z,100786.38
2022-11-29T01:00:54.623Z,100791.50
2022-11-29T01:05:47.694Z,100754.47
2022-11-29T01:10:40.312Z,100782.03
2022-11-29T01:15:33.798Z,100787.31
2022-11-29T01:20:27.486Z,100794.31
2022-11-29T01:25:21.387Z,100740.16
2022-11-29T01:30:15.326Z,100759.84
2022-11-29T01:35:08.937Z,100774.28
2022-11-29T01:40:02.383Z,100746.88
2022-11-29T01:45:25.502Z,100739.00
2022-11-29T01:50:18.863Z,100751.03
2022-11-29T01:55:12.925Z,100762.31
2022-11-29T02:00:11.048Z,100760.59
2022-11-29T02:05:07.198Z,100761.38
2022-11-29T02:10:00.344Z,100766.50
2022-11-29T02:15:03.064Z,100775.28
2022-11-29T02:20:27.359Z,100752.31
2022-11-29T02:25:41.372Z,100760.34
2022-11-29T02:30:37.529Z,100757.78
2022-11-29T02:35:59.821Z,100753.44
2022-11-29T02:41:18.304Z,100749.06
2022-11-29T02:46:11.498Z,100742.84
2022-11-29T02:51:07.344Z,100741.06
2022-11-29T02:56:05.693Z,100752.59
2022-11-29T03:01:23.453Z,100744.66
2022-11-29T03:06:31.513Z,100741.13
2022-11-29T03:11:41.970Z,100738.69
2022-11-29T03:17:04.975Z,100743.97
2022-11-29T03:22:22.030Z,100736.19
2022-11-29T03:27:22.233Z,100720.06
2022-11-29T03:32:36.534Z,100738.75
2022-11-29T03:37:36.625Z,100709.50
2022-11-29T03:42:38.839Z,100737.91
2022-11-29T03:47:39.118Z,100726.72
2022-11-29T03:52:47.632Z,100740.63
2022-11-29T03:58:14.897Z,100730.03
2022-11-29T04:03:34.157Z,100732.78
2022-11-29T04:08:42.255Z,100740.63
2022-11-29T04:14:10.314Z,100734.50
2022-11-29T04:19:22.034Z,100728.25
2022-11-29T04:24:38.736Z,100737.97
2022-11-29T04:30:09.262Z,100718.78
2022-11-29T04:35:23.213Z,100708.81
2022-11-29T04:40:28.389Z,100737.41
2022-11-29T04:45:53.330Z,100728.53
2022-11-29T04:50:53.473Z,100719.97
2022-11-29T04:56:07.261Z,100718.25
2022-11-29T05:01:44.195Z,100695.03
2022-11-29T05:06:59.709Z,100729.72
2022-11-29T05:12:21.055Z,100728.00
2022-11-29T05:17:46.421Z,100732.09
2022-11-29T05:23:09.390Z,100756.03
2022-11-29T05:28:12.099Z,100736.63
2022-11-29T05:33:57.296Z,100740.81
2022-11-29T05:39:16.063Z,100747.81
2022-11-29T05:44:14.345Z,100741.41
2022-11-29T05:49:22.437Z,100754.13
2022-11-29T05:54:34.658Z,100724.75
2022-11-29T05:59:29.869Z,100746.38
2022-11-29T06:04:57.982Z,100751.94
2022-11-29T06:10:01.666Z,100750.13
2022-11-29T06:14:57.788Z,100749.28
2022-11-29T06:20:10.686Z,100757.72
2022-11-29T06:25:04.202Z,100753.44
2022-11-29T06:30:22.864Z,100750.53
2022-11-29T06:35:22.157Z,100756.75
2022-11-29T06:40:16.683Z,100746.53
2022-11-29T06:45:14.580Z,100755.09
2022-11-29T06:50:13.432Z,100773.41
2022-11-29T06:55:08.413Z,100769.75
2022-11-29T07:00:21.085Z,100776.06
2022-11-29T07:05:30.103Z,100758.94
2022-11-29T07:10:25.268Z,100767.88
2022-11-29T07:15:22.795Z,100771.38
2022-11-29T07:20:21.306Z,100772.38
2022-11-29T07:25:32.598Z,100778.44
2022-11-29T07:30:35.206Z,100787.59
2022-11-29T07:35:31.247Z,100773.94
2022-11-29T07:40:35.957Z,100780.94
2022-11-29T07:45:34.158Z,100776.38
2022-11-29T07:50:28.258Z,100764.19
2022-11-29T07:55:22.219Z,100789.50
2022-11-29T08:00:17.194Z,100787.78
2022-11-29T08:05:10.097Z,100775.22
2022-11-29T08:10:05.070Z,100780.59
2022-11-29T08:14:57.854Z,100807.91
2022-11-29T08:19:51.528Z,100770.19
2022-11-29T08:24:45.896Z,100812.44
2022-11-29T08:29:40.201Z,100816.97
2022-11-29T08:34:34.451Z,100802.00
2022-11-29T08:39:28.337Z,100790.59
2022-11-29T08:44:22.099Z,100793.13
2022-11-29T08:49:15.505Z,100823.28
2022-11-29T08:54:09.176Z,100806.06
2022-11-29T08:59:03.281Z,100799.09
2022-11-29T09:04:07.534Z,100827.97
2022-11-29T09:09:01.580Z,100817.31
2022-11-29T09:14:00.258Z,100805.13
2022-11-29T09:18:56.472Z,100827.56
2022-11-29T09:23:51.668Z,100844.22
2022-11-29T09:28:44.529Z,100843.38
2022-11-29T09:33:38.009Z,100824.63
2022-11-29T09:38:31.525Z,100829.78
2022-11-29T09:43:39.869Z,100838.81
2022-11-29T09:48:53.070Z,100819.69
2022-11-29T09:53:59.293Z,100849.00
2022-11-29T09:59:06.526Z,100812.03
2022-11-29T10:04:06.737Z,100841.41
2022-11-29T10:09:05.342Z,100843.78
2022-11-29T10:14:04.334Z,100845.31
2022-11-29T10:19:20.367Z,100844.72
2022-11-29T10:24:20.993Z,100814.56
2022-11-29T10:29:16.421Z,100802.19
2022-11-29T10:34:22.351Z,100829.41
2022-11-29T10:39:24.252Z,100823.13
2022-11-29T10:44:17.519Z,100827.66
2022-11-29T10:49:17.866Z,100806.47
2022-11-29T10:54:19.066Z,100809.63
2022-11-29T10:59:22.496Z,100801.94
2022-11-29T11:04:43.787Z,100764.38
2022-11-29T11:09:49.322Z,100785.88
2022-11-29T11:14:44.981Z,100797.59
2022-11-29T11:19:39.246Z,100800.22
2022-11-29T11:24:36.733Z,100778.03
2022-11-29T11:29:45.047Z,100795.88
2022-11-29T11:34:39.230Z,100792.72
2022-11-29T11:39:32.820Z,100797.66
2022-11-29T11:44:46.807Z,100804.84
2022-11-29T11:49:39.629Z,100793.03
2022-11-29T11:54:33.490Z,100789.28
2022-11-29T11:59:28.313Z,100808.25
2022-11-29T12:04:31.052Z,100805.00
2022-11-29T12:09:31.454Z,100806.63
2022-11-29T12:14:34.356Z,100807.31
2022-11-29T12:19:36.591Z,100784.00
2022-11-29T12:24:41.331Z,100806.88
2022-11-29T12:29:35.915Z,100817.09
2022-11-29T12:34:43.118Z,100812.06
2022-11-29T12:40:02.195Z,100806.84
2022-11-29T12:45:33.206Z,100814.63
2022-11-29T12:50:36.123Z,100825.13
2022-11-29T12:55:35.103Z,100828.97
2022-11-29T13:00:37.678Z,100820.84
2022-11-29T13:06:00.828Z,100819.81
2022-11-29T13:11:02.031Z,100817.25
2022-11-29T13:16:32.402Z,100813.56
2022-11-29T13:21:41.309Z,100806.28
2022-11-29T13:26:35.642Z,100790.94
2022-11-29T13:31:29.395Z,100813.13
2022-11-29T13:36:59.551Z,100818.25
2022-11-29T13:42:06.018Z,100826.59
2022-11-29T13:47:33.926Z,100816.13
2022-11-29T13:52:43.587Z,100825.09
2022-11-29T14:03:32.425Z,100822.63
2022-11-29T14:08:48.077Z,100803.91
2022-11-29T14:14:03.362Z,100809.47
2022-11-29T14:19:11.449Z,100823.38
2022-11-29T14:24:39.642Z,100803.56
2022-11-29T14:30:25.059Z,100822.78
2022-11-29T14:35:31.219Z,100800.13
2022-11-29T14:40:42.433Z,100830.06
2022-11-29T14:45:36.658Z,100826.75
2022-11-29T14:50:36.004Z,100802.94
2022-11-29T14:55:34.605Z,100824.09
2022-11-29T15:00:40.930Z,100830.44
2022-11-29T15:05:57.615Z,100816.94
2022-11-29T15:10:56.525Z,100811.75
2022-11-29T15:16:09.428Z,100842.13
2022-11-29T15:21:35.861Z,100832.56
2022-11-29T15:26:30.848Z,100835.13
2022-11-29T15:31:25.312Z,100840.63
2022-11-29T15:36:21.311Z,100809.63
2022-11-29T15:41:28.034Z,100842.50
2022-11-29T15:46:27.740Z,100820.13
2022-11-29T15:51:38.056Z,100830.28
2022-11-29T15:56:43.201Z,100840.69
2022-11-29T16:01:37.999Z,100844.19
2022-11-29T16:06:41.293Z,100844.97
2022-11-29T16:11:34.742Z,100832.47
2022-11-29T16:16:32.848Z,100824.53
2022-11-29T16:21:30.156Z,100832.97
2022-11-29T16:26:28.378Z,100832.97
2022-11-29T16:31:24.203Z,100857.94
2022-11-29T16:36:29.678Z,100847.41
2022-11-29T16:41:32.083Z,100830.06
2022-11-29T16:46:26.911Z,100863.69
2022-11-29T16:51:29.821Z,100821.47
2022-11-29T16:56:29.070Z,100846.16
2022-11-29T17:01:27.579Z,100858.38
2022-11-29T17:06:23.769Z,100867.34
2022-11-29T17:11:17.840Z,100839.06
2022-11-29T17:16:15.146Z,100844.09
2022-11-29T17:21:16.860Z,100841.66
2022-11-29T17:26:10.394Z,100872.66
2022-11-29T17:31:18.377Z,100858.38
2022-11-29T17:36:15.928Z,100878.88
2022-11-29T17:41:21.879Z,100864.97
2022-11-29T17:46:18.432Z,100887.34
2022-11-29T17:51:29.188Z,100893.66
2022-11-29T17:56:25.346Z,100894.53
2022-11-29T18:01:20.479Z,100900.66
2022-11-29T18:06:37.487Z,100906.06
2022-11-29T18:11:42.910Z,100882.22
2022-11-29T18:16:38.707Z,100889.91
2022-11-29T18:21:33.780Z,100890.16
2022-11-29T18:26:32.742Z,100918.34
2022-11-29T18:31:28.286Z,100907.00
2022-11-29T18:36:29.710Z,100923.66
2022-11-29T18:41:24.047Z,100915.72
2022-11-29T18:46:20.375Z,100921.00
2022-11-29T18:51:19.086Z,100905.78
2022-11-29T18:56:18.653Z,100918.19
2022-11-29T19:01:14.894Z,100938.88
2022-11-29T19:06:11.397Z,100917.47
2022-11-29T19:11:12.911Z,100923.03
2022-11-29T19:16:12.983Z,100923.69
2022-11-29T19:21:17.069Z,100923.91
2022-11-29T19:26:13.531Z,100926.41
2022-11-29T19:31:08.056Z,100944.38
2022-11-29T19:36:12.655Z,100962.66
2022-11-29T19:41:23.675Z,100920.47
2022-11-29T19:46:38.797Z,100964.41
2022-11-29T19:51:32.383Z,100972.94
2022-11-29T19:56:26.956Z,100958.06
2022-11-29T20:01:23.369Z,100965.56
2022-11-29T20:06:16.743Z,100970.38
2022-11-29T20:11:40.413Z,100970.72
2022-11-29T20:16:34.691Z,100967.81
2022-11-29T20:21:30.573Z,100962.00
2022-11-29T20:26:23.937Z,100957.47
2022-11-29T20:31:21.561Z,100935.06
2022-11-29T20:36:32.766Z,100948.59
2022-11-29T20:41:49.125Z,100949.03
2022-11-29T20:46:47.114Z,100950.34
2022-11-29T20:51:49.874Z,100927.13
2022-11-29T20:56:43.841Z,100959.75
2022-11-29T21:01:38.029Z,100941.31
2022-11-29T21:06:31.762Z,100938.41
2022-11-29T21:11:26.222Z,100931.91
2022-11-29T21:16:20.845Z,100933.44
2022-11-29T21:21:25.199Z,100950.22
2022-11-29T21:26:43.982Z,100917.06
2022-11-29T21:31:36.990Z,100943.47
2022-11-29T21:36:31.240Z,100945.00
2022-11-29T21:41:24.818Z,100942.28
2022-11-29T21:46:18.785Z,100918.69
2022-11-29T21:51:12.637Z,100939.19
2022-11-29T21:56:07.883Z,100919.53
2022-11-29T22:01:17.451Z,100949.28
2022-11-29T22:06:13.926Z,100915.53
2022-11-29T22:11:10.234Z,100928.28
2022-11-29T22:16:09.583Z,100930.81
2022-11-29T22:21:08.077Z,100913.56
2022-11-29T22:26:06.634Z,100939.72
2022-11-29T22:31:10.954Z,100926.63
2022-11-29T22:36:09.087Z,100925.94
2022-11-29T22:41:07.757Z,100905.94
2022-11-29T22:46:17.521Z,100944.84
2022-11-29T22:51:15.034Z,100941.31
2022-11-29T22:56:10.808Z,100944.16
2022-11-29T23:01:17.589Z,100950.97
2022-11-29T23:06:16.848Z,100944.84
2022-11-29T23:11:12.991Z,100917.72
2022-11-29T23:16:08.743Z,100949.28
2022-11-29T23:21:07.763Z,100926.03
2022-11-29T23:26:02.674Z,100926.88
2022-11-29T23:30:56.395Z,100923.97
2022-11-29T23:35:49.805Z,100912.97
2022-11-29T23:40:44.825Z,100930.25
2022-11-29T23:45:44.945Z,100940.47
2022-11-29T23:50:38.500Z,100913.91
2022-11-29T23:55:31.879Z,100929.13
